Airfield :
LOGIN :

Register | Disclaimer

   EN    FR    IT 

 










Legend :    VFR   Marginal VFR   IFR   Intensive IFR   Very Intensive IFR
Visi :
Ceiling :
>= 8 km
>= 3000ft
5 to 8 km
1000 to 3000 ft
1500m to 5 km
500 to 1000 ft
800 to 1500m
200 to 500 ft
< 800m
< 200 ft
Symbols :   Thunderstorms  Fog  Heavy snow  Heavy precipitations  Wind > 20 kt
SIGMETs :     Misc.  Thunderstorms  Icing  Turbulence  Mountain Waves  Volcanic Ashes







- Airport Elevation : 116 ft
- IATA code : ISC
- Download approach charts


EGHE - Scilly Isles / St Mary's

CURRENT METAR :
  • 231650Z 23017KT 9999 FEW011 BKN019 12/09 Q1018

EXPIRED METARs :
  • 231620Z 23019KT 9999 FEW011 BKN023 12/09 Q1019
  • 231550Z 23018KT 9999 FEW012 SCT027 12/09 Q1019
  • 231520Z 23019KT 9999 FEW012 SCT028 12/09 Q1019
  • 231450Z 23019KT 9999 SCT029 13/09 Q1019
  • 231420Z 22018KT 9999 FEW022 13/09 Q1019

TAF TAF EGHE
Valid from the 23 at 15:00 until the 23 at 18:00 UTC


231400Z 2315/2318 23015KT 9999 BKN025
BECMG 2315/2318 BKN012
TEMPO 2315/2318 23020G30KT
TEMPO 2316/2318 7000 RA BKN007
No reported NOTAMs for that airfield.



MET'MAP, your aeronautical weather chart ! - Copyright ORBIFLY December 2007 - Disclaimer

ORBIFLY MET'MAP TEAM :

Programming & Development : Alexandra Zaïnal
Concept & Development : Baudouin d'Aumeries
Co-Development & Prog : Marc-Olivier Méhu
Technical & hardware support : Manuel Goepfert

Contact : metmap@orbifly.com




SOURCES & CREDITS :

   NOAA